sensor_id;sensor_type;location;lat;lon;timestamp;P1;durP1;ratioP1;P2;durP2;ratioP2
56141;SDS011;42018;48.588;10.836;2023-06-26T03:11:49;5.72;;;4.63;;
56141;SDS011;42018;48.588;10.836;2023-06-26T03:33:11;6.10;;;4.40;;
56141;SDS011;42018;48.588;10.836;2023-06-26T04:06:22;6.38;;;5.00;;
56141;SDS011;42018;48.588;10.836;2023-06-26T04:09:19;5.72;;;4.60;;
56141;SDS011;42018;48.588;10.836;2023-06-26T04:49:41;7.38;;;5.50;;
56141;SDS011;42018;48.588;10.836;2023-06-26T05:03:50;6.38;;;5.78;;
56141;SDS011;42018;48.588;10.836;2023-06-26T05:06:36;6.80;;;5.93;;
56141;SDS011;42018;48.588;10.836;2023-06-26T05:09:22;6.82;;;6.13;;
56141;SDS011;42018;48.588;10.836;2023-06-26T05:26:41;7.43;;;6.20;;
56141;SDS011;42018;48.588;10.836;2023-06-26T05:33:33;7.90;;;5.75;;
56141;SDS011;42018;48.588;10.836;2023-06-26T05:36:21;6.90;;;6.20;;
56141;SDS011;42018;48.588;10.836;2023-06-26T05:39:18;6.78;;;6.10;;
56141;SDS011;42018;48.588;10.836;2023-06-26T05:42:04;5.63;;;5.03;;
56141;SDS011;42018;48.588;10.836;2023-06-26T05:48:42;6.30;;;5.60;;
56141;SDS011;42018;48.588;10.836;2023-06-26T05:51:28;6.80;;;5.90;;
56141;SDS011;42018;48.588;10.836;2023-06-26T05:54:38;6.65;;;5.82;;
56141;SDS011;42018;48.588;10.836;2023-06-26T06:01:05;6.75;;;6.13;;
56141;SDS011;42018;48.588;10.836;2023-06-26T06:03:50;6.60;;;5.90;;
56141;SDS011;42018;48.588;10.836;2023-06-26T06:06:35;6.85;;;6.15;;
56141;SDS011;42018;48.588;10.836;2023-06-26T06:09:21;7.60;;;6.47;;
56141;SDS011;42018;48.588;10.836;2023-06-26T06:12:07;7.60;;;6.57;;
56141;SDS011;42018;48.588;10.836;2023-06-26T06:14:53;7.30;;;6.13;;
56141;SDS011;42018;48.588;10.836;2023-06-26T06:17:38;6.78;;;6.07;;
56141;SDS011;42018;48.588;10.836;2023-06-26T06:20:24;6.90;;;6.20;;
56141;SDS011;42018;48.588;10.836;2023-06-26T06:23:10;7.30;;;6.60;;
56141;SDS011;42018;48.588;10.836;2023-06-26T06:25:55;7.32;;;5.95;;
56141;SDS011;42018;48.588;10.836;2023-06-26T06:28:40;6.72;;;6.03;;
56141;SDS011;42018;48.588;10.836;2023-06-26T06:31:26;8.75;;;6.13;;
56141;SDS011;42018;48.588;10.836;2023-06-26T06:34:13;6.78;;;6.07;;
56141;SDS011;42018;48.588;10.836;2023-06-26T06:36:58;6.88;;;6.18;;
56141;SDS011;42018;48.588;10.836;2023-06-26T06:39:44;6.03;;;5.07;;
56141;SDS011;42018;48.588;10.836;2023-06-26T06:42:29;5.97;;;5.30;;
56141;SDS011;42018;48.588;10.836;2023-06-26T06:45:14;7.10;;;5.40;;
56141;SDS011;42018;48.588;10.836;2023-06-26T06:48:00;6.80;;;5.72;;
56141;SDS011;42018;48.588;10.836;2023-06-26T06:50:45;6.30;;;5.70;;
56141;SDS011;42018;48.588;10.836;2023-06-26T06:53:31;6.75;;;5.40;;
56141;SDS011;42018;48.588;10.836;2023-06-26T06:56:16;7.35;;;6.18;;
56141;SDS011;42018;48.588;10.836;2023-06-26T06:59:02;6.22;;;5.60;;
56141;SDS011;42018;48.588;10.836;2023-06-26T07:01:47;6.07;;;5.47;;
56141;SDS011;42018;48.588;10.836;2023-06-26T07:04:32;7.15;;;5.90;;
56141;SDS011;42018;48.588;10.836;2023-06-26T07:07:18;6.90;;;6.00;;
56141;SDS011;42018;48.588;10.836;2023-06-26T07:10:13;7.13;;;6.20;;
56141;SDS011;42018;48.588;10.836;2023-06-26T07:12:59;6.85;;;6.00;;
56141;SDS011;42018;48.588;10.836;2023-06-26T07:15:45;6.22;;;5.35;;
56141;SDS011;42018;48.588;10.836;2023-06-26T07:18:30;6.65;;;5.55;;
56141;SDS011;42018;48.588;10.836;2023-06-26T07:21:16;6.78;;;5.88;;
56141;SDS011;42018;48.588;10.836;2023-06-26T07:24:01;6.53;;;5.50;;
56141;SDS011;42018;48.588;10.836;2023-06-26T07:26:46;6.57;;;5.50;;
56141;SDS011;42018;48.588;10.836;2023-06-26T07:29:32;6.30;;;5.70;;
56141;SDS011;42018;48.588;10.836;2023-06-26T07:32:18;6.38;;;5.43;;
56141;SDS011;42018;48.588;10.836;2023-06-26T07:35:03;6.30;;;5.13;;
56141;SDS011;42018;48.588;10.836;2023-06-26T07:37:49;6.90;;;5.20;;
56141;SDS011;42018;48.588;10.836;2023-06-26T07:40:34;6.18;;;5.25;;
56141;SDS011;42018;48.588;10.836;2023-06-26T07:43:20;5.60;;;4.90;;
56141;SDS011;42018;48.588;10.836;2023-06-26T07:46:05;5.65;;;4.57;;
56141;SDS011;42018;48.588;10.836;2023-06-26T07:48:51;6.32;;;4.90;;
56141;SDS011;42018;48.588;10.836;2023-06-26T07:51:36;5.90;;;4.70;;
56141;SDS011;42018;48.588;10.836;2023-06-26T07:54:21;5.43;;;4.35;;
56141;SDS011;42018;48.588;10.836;2023-06-26T07:57:07;5.30;;;4.20;;
56141;SDS011;42018;48.588;10.836;2023-06-26T07:59:53;5.85;;;4.80;;
56141;SDS011;42018;48.588;10.836;2023-06-26T08:02:39;5.72;;;4.50;;
56141;SDS011;42018;48.588;10.836;2023-06-26T08:05:24;5.93;;;4.45;;
56141;SDS011;42018;48.588;10.836;2023-06-26T08:08:09;7.60;;;4.50;;
56141;SDS011;42018;48.588;10.836;2023-06-26T08:10:55;7.60;;;4.50;;
56141;SDS011;42018;48.588;10.836;2023-06-26T08:13:40;7.05;;;4.70;;
56141;SDS011;42018;48.588;10.836;2023-06-26T08:16:25;5.65;;;4.63;;
56141;SDS011;42018;48.588;10.836;2023-06-26T08:19:11;6.07;;;4.50;;
56141;SDS011;42018;48.588;10.836;2023-06-26T08:22:00;9.82;;;5.10;;
56141;SDS011;42018;48.588;10.836;2023-06-26T08:24:45;5.93;;;4.38;;
56141;SDS011;42018;48.588;10.836;2023-06-26T08:27:31;5.43;;;3.83;;
56141;SDS011;42018;48.588;10.836;2023-06-26T08:30:17;6.85;;;4.57;;
56141;SDS011;42018;48.588;10.836;2023-06-26T08:33:02;5.20;;;3.95;;
56141;SDS011;42018;48.588;10.836;2023-06-26T08:35:48;5.20;;;4.15;;
56141;SDS011;42018;48.588;10.836;2023-06-26T08:38:33;5.00;;;4.05;;
56141;SDS011;42018;48.588;10.836;2023-06-26T08:41:19;5.00;;;3.70;;
56141;SDS011;42018;48.588;10.836;2023-06-26T08:44:04;5.35;;;4.10;;
56141;SDS011;42018;48.588;10.836;2023-06-26T08:46:50;5.13;;;3.53;;
56141;SDS011;42018;48.588;10.836;2023-06-26T08:49:45;5.53;;;3.65;;
56141;SDS011;42018;48.588;10.836;2023-06-26T08:52:34;5.60;;;3.60;;
56141;SDS011;42018;48.588;10.836;2023-06-26T08:55:22;6.63;;;3.70;;
56141;SDS011;42018;48.588;10.836;2023-06-26T08:58:10;5.50;;;3.70;;
56141;SDS011;42018;48.588;10.836;2023-06-26T09:00:57;5.03;;;3.10;;
56141;SDS011;42018;48.588;10.836;2023-06-26T09:03:44;5.20;;;2.90;;
56141;SDS011;42018;48.588;10.836;2023-06-26T09:06:29;4.43;;;3.25;;
56141;SDS011;42018;48.588;10.836;2023-06-26T09:09:15;5.32;;;3.53;;
56141;SDS011;42018;48.588;10.836;2023-06-26T09:12:01;5.68;;;3.25;;
56141;SDS011;42018;48.588;10.836;2023-06-26T09:14:48;4.95;;;3.40;;
56141;SDS011;42018;48.588;10.836;2023-06-26T09:17:38;4.78;;;3.17;;
56141;SDS011;42018;48.588;10.836;2023-06-26T09:20:27;5.05;;;3.20;;
56141;SDS011;42018;48.588;10.836;2023-06-26T09:23:13;4.72;;;2.92;;
56141;SDS011;42018;48.588;10.836;2023-06-26T09:25:58;4.50;;;2.67;;
56141;SDS011;42018;48.588;10.836;2023-06-26T09:28:43;4.07;;;2.72;;
56141;SDS011;42018;48.588;10.836;2023-06-26T09:31:29;4.32;;;2.90;;
56141;SDS011;42018;48.588;10.836;2023-06-26T09:34:14;4.72;;;3.10;;
56141;SDS011;42018;48.588;10.836;2023-06-26T09:37:00;5.03;;;2.85;;
56141;SDS011;42018;48.588;10.836;2023-06-26T09:39:48;6.22;;;2.78;;
56141;SDS011;42018;48.588;10.836;2023-06-26T09:42:35;5.93;;;2.92;;
56141;SDS011;42018;48.588;10.836;2023-06-26T09:45:21;5.30;;;2.90;;
56141;SDS011;42018;48.588;10.836;2023-06-26T09:48:07;5.15;;;2.83;;
56141;SDS011;42018;48.588;10.836;2023-06-26T09:50:53;4.63;;;2.92;;
56141;SDS011;42018;48.588;10.836;2023-06-26T09:53:39;4.13;;;2.70;;
56141;SDS011;42018;48.588;10.836;2023-06-26T09:56:27;4.60;;;2.90;;
56141;SDS011;42018;48.588;10.836;2023-06-26T09:59:14;4.28;;;2.60;;
56141;SDS011;42018;48.588;10.836;2023-06-26T10:02:00;6.00;;;2.70;;
56141;SDS011;42018;48.588;10.836;2023-06-26T10:04:46;4.80;;;2.47;;
56141;SDS011;42018;48.588;10.836;2023-06-26T10:07:31;4.30;;;2.80;;
56141;SDS011;42018;48.588;10.836;2023-06-26T10:10:17;4.28;;;2.97;;
56141;SDS011;42018;48.588;10.836;2023-06-26T10:13:06;4.10;;;2.55;;
56141;SDS011;42018;48.588;10.836;2023-06-26T10:15:55;4.97;;;2.53;;
56141;SDS011;42018;48.588;10.836;2023-06-26T10:18:43;5.55;;;2.65;;
56141;SDS011;42018;48.588;10.836;2023-06-26T10:21:30;5.63;;;2.80;;
56141;SDS011;42018;48.588;10.836;2023-06-26T10:24:16;3.90;;;2.40;;
56141;SDS011;42018;48.588;10.836;2023-06-26T10:27:07;4.30;;;2.80;;
56141;SDS011;42018;48.588;10.836;2023-06-26T10:29:59;4.28;;;2.63;;
56141;SDS011;42018;48.588;10.836;2023-06-26T10:32:48;4.43;;;2.42;;
56141;SDS011;42018;48.588;10.836;2023-06-26T10:35:40;4.28;;;2.65;;
56141;SDS011;42018;48.588;10.836;2023-06-26T10:38:48;3.95;;;2.63;;
56141;SDS011;42018;48.588;10.836;2023-06-26T10:41:40;4.00;;;2.58;;
56141;SDS011;42018;48.588;10.836;2023-06-26T10:44:29;4.72;;;2.45;;
56141;SDS011;42018;48.588;10.836;2023-06-26T10:47:29;5.85;;;2.60;;
56141;SDS011;42018;48.588;10.836;2023-06-26T10:50:25;4.32;;;2.53;;
56141;SDS011;42018;48.588;10.836;2023-06-26T10:53:15;5.18;;;2.72;;
56141;SDS011;42018;48.588;10.836;2023-06-26T10:56:10;4.97;;;2.80;;
56141;SDS011;42018;48.588;10.836;2023-06-26T10:58:55;4.43;;;2.58;;
56141;SDS011;42018;48.588;10.836;2023-06-26T11:01:59;5.75;;;2.70;;
56141;SDS011;42018;48.588;10.836;2023-06-26T11:04:50;4.45;;;2.42;;
56141;SDS011;42018;48.588;10.836;2023-06-26T11:07:38;3.35;;;2.22;;
56141;SDS011;42018;48.588;10.836;2023-06-26T11:10:53;5.95;;;2.72;;
56141;SDS011;42018;48.588;10.836;2023-06-26T11:13:41;4.03;;;2.50;;
56141;SDS011;42018;48.588;10.836;2023-06-26T11:16:27;4.25;;;2.58;;
56141;SDS011;42018;48.588;10.836;2023-06-26T11:19:13;4.63;;;2.75;;
56141;SDS011;42018;48.588;10.836;2023-06-26T11:22:01;3.90;;;2.50;;
56141;SDS011;42018;48.588;10.836;2023-06-26T11:24:47;4.50;;;2.50;;
56141;SDS011;42018;48.588;10.836;2023-06-26T11:27:38;4.60;;;2.40;;
56141;SDS011;42018;48.588;10.836;2023-06-26T11:33:12;3.92;;;2.05;;
56141;SDS011;42018;48.588;10.836;2023-06-26T11:36:07;3.47;;;2.10;;
56141;SDS011;42018;48.588;10.836;2023-06-26T11:38:56;4.15;;;2.00;;
56141;SDS011;42018;48.588;10.836;2023-06-26T11:41:44;3.70;;;2.15;;
56141;SDS011;42018;48.588;10.836;2023-06-26T11:44:30;5.60;;;2.15;;
56141;SDS011;42018;48.588;10.836;2023-06-26T11:47:17;4.13;;;1.98;;
56141;SDS011;42018;48.588;10.836;2023-06-26T11:50:04;3.78;;;1.98;;
56141;SDS011;42018;48.588;10.836;2023-06-26T11:52:53;3.92;;;1.92;;
56141;SDS011;42018;48.588;10.836;2023-06-26T11:55:43;3.78;;;2.30;;
56141;SDS011;42018;48.588;10.836;2023-06-26T11:58:29;3.38;;;1.88;;
56141;SDS011;42018;48.588;10.836;2023-06-26T12:01:17;4.00;;;2.03;;
56141;SDS011;42018;48.588;10.836;2023-06-26T12:04:04;4.43;;;2.08;;
56141;SDS011;42018;48.588;10.836;2023-06-26T12:06:53;3.50;;;2.15;;
56141;SDS011;42018;48.588;10.836;2023-06-26T12:09:42;3.72;;;2.20;;
56141;SDS011;42018;48.588;10.836;2023-06-26T12:12:31;3.67;;;2.05;;
56141;SDS011;42018;48.588;10.836;2023-06-26T12:15:19;4.97;;;2.33;;
56141;SDS011;42018;48.588;10.836;2023-06-26T12:18:08;4.18;;;2.08;;
56141;SDS011;42018;48.588;10.836;2023-06-26T12:20:54;3.92;;;2.10;;
56141;SDS011;42018;48.588;10.836;2023-06-26T12:23:39;3.80;;;2.15;;
56141;SDS011;42018;48.588;10.836;2023-06-26T12:26:25;4.03;;;2.22;;
56141;SDS011;42018;48.588;10.836;2023-06-26T12:29:12;3.20;;;1.88;;
56141;SDS011;42018;48.588;10.836;2023-06-26T12:32:00;3.85;;;2.50;;
56141;SDS011;42018;48.588;10.836;2023-06-26T12:34:49;4.50;;;2.42;;
56141;SDS011;42018;48.588;10.836;2023-06-26T12:37:38;3.55;;;2.15;;
56141;SDS011;42018;48.588;10.836;2023-06-26T12:40:25;3.85;;;2.30;;
56141;SDS011;42018;48.588;10.836;2023-06-26T12:43:11;4.38;;;2.08;;
56141;SDS011;42018;48.588;10.836;2023-06-26T12:45:56;4.07;;;2.30;;
56141;SDS011;42018;48.588;10.836;2023-06-26T12:48:42;3.80;;;2.28;;
56141;SDS011;42018;48.588;10.836;2023-06-26T12:51:31;4.30;;;2.22;;
56141;SDS011;42018;48.588;10.836;2023-06-26T12:54:16;3.72;;;2.22;;
56141;SDS011;42018;48.588;10.836;2023-06-26T12:57:01;3.85;;;2.45;;
56141;SDS011;42018;48.588;10.836;2023-06-26T12:59:49;3.47;;;2.20;;
56141;SDS011;42018;48.588;10.836;2023-06-26T13:02:34;3.55;;;2.03;;
56141;SDS011;42018;48.588;10.836;2023-06-26T13:05:19;4.05;;;2.42;;
56141;SDS011;42018;48.588;10.836;2023-06-26T13:08:05;4.70;;;2.22;;
56141;SDS011;42018;48.588;10.836;2023-06-26T13:10:50;4.05;;;2.25;;
56141;SDS011;42018;48.588;10.836;2023-06-26T13:13:36;5.13;;;2.38;;
56141;SDS011;42018;48.588;10.836;2023-06-26T13:16:21;4.93;;;2.30;;
56141;SDS011;42018;48.588;10.836;2023-06-26T13:19:07;4.72;;;2.30;;
56141;SDS011;42018;48.588;10.836;2023-06-26T13:21:52;3.97;;;2.38;;
56141;SDS011;42018;48.588;10.836;2023-06-26T13:24:38;4.30;;;2.40;;
56141;SDS011;42018;48.588;10.836;2023-06-26T13:27:24;5.22;;;2.38;;
56141;SDS011;42018;48.588;10.836;2023-06-26T13:30:09;4.07;;;2.55;;
56141;SDS011;42018;48.588;10.836;2023-06-26T13:32:55;5.05;;;2.30;;
56141;SDS011;42018;48.588;10.836;2023-06-26T13:35:40;4.70;;;2.30;;
56141;SDS011;42018;48.588;10.836;2023-06-26T13:38:26;5.05;;;2.63;;
56141;SDS011;42018;48.588;10.836;2023-06-26T13:41:11;4.63;;;2.40;;
56141;SDS011;42018;48.588;10.836;2023-06-26T13:43:57;3.95;;;2.30;;
56141;SDS011;42018;48.588;10.836;2023-06-26T13:46:42;3.90;;;2.30;;
56141;SDS011;42018;48.588;10.836;2023-06-26T13:49:28;3.83;;;2.20;;
56141;SDS011;42018;48.588;10.836;2023-06-26T13:52:13;4.03;;;2.20;;
56141;SDS011;42018;48.588;10.836;2023-06-26T13:54:58;3.63;;;2.10;;
56141;SDS011;42018;48.588;10.836;2023-06-26T13:57:44;3.88;;;2.47;;
56141;SDS011;42018;48.588;10.836;2023-06-26T14:00:30;5.57;;;2.40;;
56141;SDS011;42018;48.588;10.836;2023-06-26T14:03:18;4.82;;;2.58;;
56141;SDS011;42018;48.588;10.836;2023-06-26T14:06:04;3.67;;;2.20;;
56141;SDS011;42018;48.588;10.836;2023-06-26T14:08:49;4.80;;;2.45;;
56141;SDS011;42018;48.588;10.836;2023-06-26T14:11:35;3.83;;;2.63;;
56141;SDS011;42018;48.588;10.836;2023-06-26T14:14:20;5.82;;;2.50;;
56141;SDS011;42018;48.588;10.836;2023-06-26T14:17:06;4.05;;;2.58;;
56141;SDS011;42018;48.588;10.836;2023-06-26T14:19:53;5.45;;;2.75;;
56141;SDS011;42018;48.588;10.836;2023-06-26T14:22:39;4.90;;;2.45;;
56141;SDS011;42018;48.588;10.836;2023-06-26T14:25:25;4.68;;;2.60;;
56141;SDS011;42018;48.588;10.836;2023-06-26T14:28:13;3.92;;;2.55;;
56141;SDS011;42018;48.588;10.836;2023-06-26T14:30:58;4.18;;;2.40;;
56141;SDS011;42018;48.588;10.836;2023-06-26T14:33:43;5.15;;;2.60;;
56141;SDS011;42018;48.588;10.836;2023-06-26T14:36:28;4.20;;;2.72;;
56141;SDS011;42018;48.588;10.836;2023-06-26T14:39:16;4.53;;;2.72;;
56141;SDS011;42018;48.588;10.836;2023-06-26T14:42:02;4.40;;;2.92;;
56141;SDS011;42018;48.588;10.836;2023-06-26T14:44:47;4.72;;;2.83;;
56141;SDS011;42018;48.588;10.836;2023-06-26T14:47:35;4.38;;;2.70;;
56141;SDS011;42018;48.588;10.836;2023-06-26T14:50:23;7.03;;;2.60;;
56141;SDS011;42018;48.588;10.836;2023-06-26T14:53:08;4.95;;;2.40;;
56141;SDS011;42018;48.588;10.836;2023-06-26T14:55:54;4.30;;;2.60;;
56141;SDS011;42018;48.588;10.836;2023-06-26T14:58:40;4.60;;;2.55;;
56141;SDS011;42018;48.588;10.836;2023-06-26T15:01:25;3.97;;;2.60;;
56141;SDS011;42018;48.588;10.836;2023-06-26T15:04:11;3.70;;;2.45;;
56141;SDS011;42018;48.588;10.836;2023-06-26T15:06:56;3.90;;;2.50;;
56141;SDS011;42018;48.588;10.836;2023-06-26T15:09:42;5.10;;;2.55;;
56141;SDS011;42018;48.588;10.836;2023-06-26T15:12:28;6.63;;;2.50;;
56141;SDS011;42018;48.588;10.836;2023-06-26T15:15:13;4.47;;;2.78;;
56141;SDS011;42018;48.588;10.836;2023-06-26T15:18:03;4.82;;;2.92;;
56141;SDS011;42018;48.588;10.836;2023-06-26T15:20:49;6.13;;;2.50;;
56141;SDS011;42018;48.588;10.836;2023-06-26T15:23:35;4.43;;;2.70;;
56141;SDS011;42018;48.588;10.836;2023-06-26T15:26:20;4.25;;;2.65;;
56141;SDS011;42018;48.588;10.836;2023-06-26T15:29:05;5.13;;;2.80;;
56141;SDS011;42018;48.588;10.836;2023-06-26T15:31:51;5.68;;;2.67;;
56141;SDS011;42018;48.588;10.836;2023-06-26T15:34:38;4.75;;;2.60;;
56141;SDS011;42018;48.588;10.836;2023-06-26T15:37:23;4.10;;;2.63;;
56141;SDS011;42018;48.588;10.836;2023-06-26T15:40:09;4.18;;;2.78;;
56141;SDS011;42018;48.588;10.836;2023-06-26T15:42:56;4.72;;;2.90;;
56141;SDS011;42018;48.588;10.836;2023-06-26T15:45:41;5.07;;;2.65;;
56141;SDS011;42018;48.588;10.836;2023-06-26T15:48:27;4.25;;;2.90;;
56141;SDS011;42018;48.588;10.836;2023-06-26T15:51:13;6.30;;;3.00;;
56141;SDS011;42018;48.588;10.836;2023-06-26T15:54:00;5.15;;;2.88;;
56141;SDS011;42018;48.588;10.836;2023-06-26T15:56:45;4.93;;;2.85;;
56141;SDS011;42018;48.588;10.836;2023-06-26T15:59:31;4.07;;;2.78;;
56141;SDS011;42018;48.588;10.836;2023-06-26T16:02:17;4.20;;;2.85;;
56141;SDS011;42018;48.588;10.836;2023-06-26T16:05:02;5.03;;;3.00;;
56141;SDS011;42018;48.588;10.836;2023-06-26T16:07:48;4.55;;;2.92;;
56141;SDS011;42018;48.588;10.836;2023-06-26T16:10:34;4.78;;;2.97;;
56141;SDS011;42018;48.588;10.836;2023-06-26T16:13:19;4.97;;;3.10;;
56141;SDS011;42018;48.588;10.836;2023-06-26T16:16:06;5.13;;;3.08;;
56141;SDS011;42018;48.588;10.836;2023-06-26T16:18:55;6.70;;;3.10;;
56141;SDS011;42018;48.588;10.836;2023-06-26T16:21:40;5.57;;;3.08;;
56141;SDS011;42018;48.588;10.836;2023-06-26T16:24:25;5.25;;;2.80;;
56141;SDS011;42018;48.588;10.836;2023-06-26T16:27:11;5.32;;;2.60;;
56141;SDS011;42018;48.588;10.836;2023-06-26T16:29:56;6.55;;;3.40;;
56141;SDS011;42018;48.588;10.836;2023-06-26T16:32:43;4.82;;;3.10;;
56141;SDS011;42018;48.588;10.836;2023-06-26T16:35:28;4.40;;;2.90;;
56141;SDS011;42018;48.588;10.836;2023-06-26T16:38:15;5.63;;;2.88;;
56141;SDS011;42018;48.588;10.836;2023-06-26T16:41:00;4.38;;;2.67;;
56141;SDS011;42018;48.588;10.836;2023-06-26T16:43:46;4.40;;;2.60;;
56141;SDS011;42018;48.588;10.836;2023-06-26T16:46:31;4.47;;;2.90;;
56141;SDS011;42018;48.588;10.836;2023-06-26T16:49:17;4.30;;;2.70;;
56141;SDS011;42018;48.588;10.836;2023-06-26T16:52:02;7.22;;;2.80;;
56141;SDS011;42018;48.588;10.836;2023-06-26T16:54:47;4.45;;;2.85;;
56141;SDS011;42018;48.588;10.836;2023-06-26T16:57:33;5.57;;;2.90;;
56141;SDS011;42018;48.588;10.836;2023-06-26T17:00:19;5.38;;;3.05;;
56141;SDS011;42018;48.588;10.836;2023-06-26T17:03:05;5.07;;;2.88;;
56141;SDS011;42018;48.588;10.836;2023-06-26T17:05:50;4.43;;;2.70;;
56141;SDS011;42018;48.588;10.836;2023-06-26T17:08:36;4.25;;;2.67;;
56141;SDS011;42018;48.588;10.836;2023-06-26T17:11:21;4.45;;;2.58;;
56141;SDS011;42018;48.588;10.836;2023-06-26T17:14:07;4.38;;;2.60;;
56141;SDS011;42018;48.588;10.836;2023-06-26T17:16:52;4.72;;;2.80;;
56141;SDS011;42018;48.588;10.836;2023-06-26T17:19:38;5.30;;;2.92;;
56141;SDS011;42018;48.588;10.836;2023-06-26T17:22:24;4.30;;;2.90;;
56141;SDS011;42018;48.588;10.836;2023-06-26T17:25:09;4.40;;;2.78;;
56141;SDS011;42018;48.588;10.836;2023-06-26T17:27:56;4.63;;;2.92;;
56141;SDS011;42018;48.588;10.836;2023-06-26T17:30:42;4.20;;;2.80;;
56141;SDS011;42018;48.588;10.836;2023-06-26T17:33:28;4.53;;;2.92;;
56141;SDS011;42018;48.588;10.836;2023-06-26T17:36:14;4.63;;;2.70;;
56141;SDS011;42018;48.588;10.836;2023-06-26T17:39:00;5.20;;;2.83;;
56141;SDS011;42018;48.588;10.836;2023-06-26T17:41:47;4.10;;;2.67;;
56141;SDS011;42018;48.588;10.836;2023-06-26T17:44:33;4.85;;;2.50;;
56141;SDS011;42018;48.588;10.836;2023-06-26T17:47:19;5.80;;;2.60;;
56141;SDS011;42018;48.588;10.836;2023-06-26T17:50:05;4.07;;;2.30;;
56141;SDS011;42018;48.588;10.836;2023-06-26T17:52:51;3.95;;;2.30;;
56141;SDS011;42018;48.588;10.836;2023-06-26T17:55:36;4.32;;;2.20;;
56141;SDS011;42018;48.588;10.836;2023-06-26T17:58:23;4.78;;;1.90;;
56141;SDS011;42018;48.588;10.836;2023-06-26T18:01:08;3.55;;;1.90;;
56141;SDS011;42018;48.588;10.836;2023-06-26T18:03:53;3.55;;;1.90;;
56141;SDS011;42018;48.588;10.836;2023-06-26T18:06:39;4.30;;;1.90;;
56141;SDS011;42018;48.588;10.836;2023-06-26T18:09:24;4.35;;;1.98;;
56141;SDS011;42018;48.588;10.836;2023-06-26T18:12:10;4.90;;;2.05;;
56141;SDS011;42018;48.588;10.836;2023-06-26T18:14:55;5.93;;;2.30;;
56141;SDS011;42018;48.588;10.836;2023-06-26T18:17:40;3.65;;;1.88;;
56141;SDS011;42018;48.588;10.836;2023-06-26T18:20:26;3.92;;;2.13;;
56141;SDS011;42018;48.588;10.836;2023-06-26T18:23:11;3.50;;;1.90;;
56141;SDS011;42018;48.588;10.836;2023-06-26T18:25:57;3.83;;;2.08;;
56141;SDS011;42018;48.588;10.836;2023-06-26T18:28:43;4.38;;;2.38;;
56141;SDS011;42018;48.588;10.836;2023-06-26T18:31:29;3.88;;;2.20;;
56141;SDS011;42018;48.588;10.836;2023-06-26T18:34:14;5.10;;;2.25;;
56141;SDS011;42018;48.588;10.836;2023-06-26T18:37:00;4.95;;;2.40;;
56141;SDS011;42018;48.588;10.836;2023-06-26T18:39:45;3.95;;;2.10;;
56141;SDS011;42018;48.588;10.836;2023-06-26T18:42:30;4.28;;;2.47;;
56141;SDS011;42018;48.588;10.836;2023-06-26T18:45:16;4.72;;;2.70;;
56141;SDS011;42018;48.588;10.836;2023-06-26T18:48:01;6.93;;;2.63;;
56141;SDS011;42018;48.588;10.836;2023-06-26T18:50:50;6.15;;;2.80;;
56141;SDS011;42018;48.588;10.836;2023-06-26T18:53:35;4.70;;;2.67;;
56141;SDS011;42018;48.588;10.836;2023-06-26T18:56:23;5.13;;;2.55;;
56141;SDS011;42018;48.588;10.836;2023-06-26T18:59:09;4.93;;;2.90;;
56141;SDS011;42018;48.588;10.836;2023-06-26T19:01:55;4.30;;;2.70;;
56141;SDS011;42018;48.588;10.836;2023-06-26T19:04:41;5.50;;;2.95;;
56141;SDS011;42018;48.588;10.836;2023-06-26T19:07:26;4.32;;;2.90;;
56141;SDS011;42018;48.588;10.836;2023-06-26T19:10:12;5.53;;;2.85;;
56141;SDS011;42018;48.588;10.836;2023-06-26T19:13:01;4.90;;;2.95;;
56141;SDS011;42018;48.588;10.836;2023-06-26T19:15:46;6.07;;;3.13;;
56141;SDS011;42018;48.588;10.836;2023-06-26T19:18:32;4.43;;;2.80;;
56141;SDS011;42018;48.588;10.836;2023-06-26T19:21:17;5.10;;;2.80;;
56141;SDS011;42018;48.588;10.836;2023-06-26T19:24:03;6.15;;;2.85;;
56141;SDS011;42018;48.588;10.836;2023-06-26T19:26:48;5.25;;;3.22;;
56141;SDS011;42018;48.588;10.836;2023-06-26T19:29:34;4.82;;;3.05;;
56141;SDS011;42018;48.588;10.836;2023-06-26T19:32:20;5.50;;;3.03;;
56141;SDS011;42018;48.588;10.836;2023-06-26T19:35:05;5.40;;;3.10;;
56141;SDS011;42018;48.588;10.836;2023-06-26T19:37:51;5.25;;;2.85;;
56141;SDS011;42018;48.588;10.836;2023-06-26T19:40:36;5.28;;;2.95;;
56141;SDS011;42018;48.588;10.836;2023-06-26T19:43:22;4.53;;;3.00;;
56141;SDS011;42018;48.588;10.836;2023-06-26T19:46:07;5.15;;;2.78;;
56141;SDS011;42018;48.588;10.836;2023-06-26T19:48:53;5.15;;;2.63;;
56141;SDS011;42018;48.588;10.836;2023-06-26T19:51:39;5.07;;;2.45;;
56141;SDS011;42018;48.588;10.836;2023-06-26T19:54:24;4.72;;;2.22;;
56141;SDS011;42018;48.588;10.836;2023-06-26T19:57:09;3.97;;;2.10;;
56141;SDS011;42018;48.588;10.836;2023-06-26T19:59:55;4.00;;;2.20;;
56141;SDS011;42018;48.588;10.836;2023-06-26T20:02:41;4.43;;;2.38;;
56141;SDS011;42018;48.588;10.836;2023-06-26T20:05:27;4.32;;;1.90;;
56141;SDS011;42018;48.588;10.836;2023-06-26T20:08:12;4.57;;;1.80;;
56141;SDS011;42018;48.588;10.836;2023-06-26T20:10:57;3.60;;;1.90;;
56141;SDS011;42018;48.588;10.836;2023-06-26T20:13:43;3.65;;;1.67;;
56141;SDS011;42018;48.588;10.836;2023-06-26T20:16:29;3.13;;;1.55;;
56141;SDS011;42018;48.588;10.836;2023-06-26T20:19:14;3.95;;;1.60;;
56141;SDS011;42018;48.588;10.836;2023-06-26T20:21:59;5.32;;;1.58;;
56141;SDS011;42018;48.588;10.836;2023-06-26T20:24:45;4.07;;;1.30;;
56141;SDS011;42018;48.588;10.836;2023-06-26T20:27:30;3.72;;;1.40;;
56141;SDS011;42018;48.588;10.836;2023-06-26T20:30:15;3.88;;;1.30;;
56141;SDS011;42018;48.588;10.836;2023-06-26T20:33:01;2.72;;;1.10;;
56141;SDS011;42018;48.588;10.836;2023-06-26T20:35:46;2.65;;;1.20;;
56141;SDS011;42018;48.588;10.836;2023-06-26T20:38:32;3.67;;;1.35;;
56141;SDS011;42018;48.588;10.836;2023-06-26T20:41:17;3.45;;;1.23;;
56141;SDS011;42018;48.588;10.836;2023-06-26T20:44:03;3.53;;;1.10;;
56141;SDS011;42018;48.588;10.836;2023-06-26T20:46:49;4.50;;;1.40;;
56141;SDS011;42018;48.588;10.836;2023-06-26T20:49:40;2.67;;;1.10;;
56141;SDS011;42018;48.588;10.836;2023-06-26T20:52:27;2.90;;;1.30;;
56141;SDS011;42018;48.588;10.836;2023-06-26T20:55:15;3.08;;;1.10;;
56141;SDS011;42018;48.588;10.836;2023-06-26T20:58:01;3.53;;;1.10;;
56141;SDS011;42018;48.588;10.836;2023-06-26T21:00:46;3.33;;;1.30;;
56141;SDS011;42018;48.588;10.836;2023-06-26T21:03:31;3.47;;;1.15;;
56141;SDS011;42018;48.588;10.836;2023-06-26T21:06:19;2.92;;;1.02;;
56141;SDS011;42018;48.588;10.836;2023-06-26T21:09:04;3.22;;;1.30;;
56141;SDS011;42018;48.588;10.836;2023-06-26T21:11:50;3.33;;;1.20;;
56141;SDS011;42018;48.588;10.836;2023-06-26T21:14:35;5.65;;;1.30;;
56141;SDS011;42018;48.588;10.836;2023-06-26T21:17:20;4.30;;;1.38;;
56141;SDS011;42018;48.588;10.836;2023-06-26T21:20:06;4.07;;;1.20;;
56141;SDS011;42018;48.588;10.836;2023-06-26T21:22:51;3.78;;;1.35;;
56141;SDS011;42018;48.588;10.836;2023-06-26T21:25:37;3.90;;;1.30;;
56141;SDS011;42018;48.588;10.836;2023-06-26T21:28:22;4.32;;;1.30;;
56141;SDS011;42018;48.588;10.836;2023-06-26T21:31:08;3.70;;;1.35;;
56141;SDS011;42018;48.588;10.836;2023-06-26T21:33:54;3.85;;;1.10;;
56141;SDS011;42018;48.588;10.836;2023-06-26T21:36:39;4.30;;;1.40;;
56141;SDS011;42018;48.588;10.836;2023-06-26T21:39:24;2.60;;;1.15;;
56141;SDS011;42018;48.588;10.836;2023-06-26T21:42:10;3.90;;;1.38;;
56141;SDS011;42018;48.588;10.836;2023-06-26T21:44:55;3.42;;;1.20;;